Hitoyoshi, Japan

7:01 AM JST on February 28, 2015 (GMT +0900)
Kumamoto | Change Station
CLOSE
Current Station
Airport
Location: Kumamoto,
Elevation: 643 ft
Nearby Weather Stations

Elev 643 ft 32.84 °N, 130.86 °E | Updated 51 minutes ago

Clear
Clear
36 °F
Feels Like 33 °F
N
4
Wind Variable Wind from East

Today
High -- | Low -- °F
--% Chance of Precip.
Yesterday
High -- | Low -- °F
Precip. -- in
6:46 AM 6:13 PM
Waxing Gibbous, 72% visible
Pressure 30.21 in
Visibility -9999.0 miles
Clouds
Windchill 33 °F
Dew Point 21 °F
Humidity 56%
Rainfall 0.00 in
Snow Depth Not available.
UV Not available.
Pollen Not available.
Air Quality Not available.
Flu Activity Not available.
SPECI RJFT 272110Z 10003KT 030V150 CAVOK 02/M06 Q1023 RMK A3023 VOLCANIC ASH CLOUD E

More Conditions Fewer Conditions

Pressure 30.21 in
Visibility -9999.0 miles
Clouds
Windchill 33 °F
Dew Point 21 °F
Humidity 56%
Rainfall 0.00 in
Snow Depth Not available.
UV Not available.
Pollen Not available.
Air Quality Not available.
Flu Activity Not available.
SPECI RJFT 272110Z 10003KT 030V150 CAVOK 02/M06 Q1023 RMK A3023 VOLCANIC ASH CLOUD E

More Conditions Fewer Conditions

10-Day Weather Forecast

Almanac

Astronomy

Feb. 28, 2015 Rise Set
Actual Time
Civil Twilight
Nautical Twilight
Astronomical Twilight
Moon
Length of Visible Light
Length of Day
Tomorrow will be .
, % of the Moon is Illuminated

Today's Extremes

Country Highs Country Lows

Community

WunderPhotos

Upload Photos

1,800,848 photos uploaded!

WunderBlogs® & News

Nearby

Air Quality

  Air Quality AQ Index Pollutant
Not available.

Snow Depth

Station Depth Elevation

Earthquake Activity

City Distance Mag. Time & Date
Minimum magnitude displayed is 2.5.

Coastal Water Temperatures

Place Temperature

Nearby Weather Stations